Time;durP1;ratioP1;P1;durP2;ratioP2;P2;SDS_P1;SDS_P2;PMS_P1;PMS_P2;Temp;Humidity;BMP_temperature;BMP_pressure;BME280_temperature;BME280_humidity;BME280_pressure;Samples;Min_cycle;Max_cycle;Signal;HPM_P1;HPM_P2
2022/05/07 00:00:26;;;;;;;;;;;17.50;73.70;;;;;;5119606;27;19926;-77
2022/05/07 00:02:58;;;;;;;;;;;17.50;73.70;;;;;;5094495;27;20014;-79
2022/05/07 00:05:26;;;;;;;;;;;17.50;73.70;;;;;;5118149;27;19926;-76
2022/05/07 00:07:53;;;;;;;;;;;17.50;73.70;;;;;;5114408;27;19920;-78
2022/05/07 00:10:26;;;;;;;;;;;17.90;74.10;;;;;;5121545;27;20405;-76
2022/05/07 00:12:56;;;;;;;;;;;17.50;73.70;;;;;;5115234;27;19919;-78
2022/05/07 00:15:23;;;;;;;;;;;17.50;73.80;;;;;;5119294;27;20008;-78
2022/05/07 00:18:05;;;;;;;;;;;17.50;73.70;;;;;;5102202;27;20004;-76
2022/05/07 00:20:33;;;;;;;;;;;17.50;73.70;;;;;;5114329;27;19928;-79
2022/05/07 00:23:03;;;;;;;;;;;17.50;73.60;;;;;;5108712;27;19919;-77
2022/05/07 00:25:48;;;;;;;;;;;17.50;73.60;;;;;;5106395;27;19930;-76
2022/05/07 00:28:17;;;;;;;;;;;17.50;73.60;;;;;;5116218;27;19976;-77
2022/05/07 00:31:03;;;;;;;;;;;17.50;73.70;;;;;;5093738;27;19920;-76
2022/05/07 00:33:31;;;;;;;;;;;17.50;73.60;;;;;;5092959;27;19963;-77
2022/05/07 00:35:58;;;;;;;;;;;17.50;73.70;;;;;;5091663;27;19930;-76
2022/05/07 00:38:27;;;;;;;;;;;17.40;73.50;;;;;;5092792;27;19951;-77
2022/05/07 00:40:59;;;;;;;;;;;17.50;73.60;;;;;;5096239;27;20026;-75
2022/05/07 00:43:34;;;;;;;;;;;17.50;73.60;;;;;;5099758;27;20414;-78
2022/05/07 00:46:13;;;;;;;;;;;16.90;72.90;;;;;;5096109;27;19962;-76
2022/05/07 00:48:52;;;;;;;;;;;17.50;73.50;;;;;;5090375;28;19920;-77
2022/05/07 00:51:33;;;;;;;;;;;17.50;73.60;;;;;;5086295;27;19923;-76
2022/05/07 00:54:08;;;;;;;;;;;17.50;73.70;;;;;;5096663;28;20084;-76
2022/05/07 00:56:45;;;;;;;;;;;17.50;73.50;;;;;;5096378;27;19924;-78
2022/05/07 00:59:22;;;;;;;;;;;17.50;73.60;;;;;;5110205;28;19951;-76
2022/05/07 01:02:04;;;;;;;;;;;17.50;73.50;;;;;;5109091;28;19919;-77
2022/05/07 01:04:51;;;;;;;;;;;17.50;73.50;;;;;;5101530;28;19996;-76
2022/05/07 01:07:18;;;;;;;;;;;17.50;73.50;;;;;;5099657;27;20483;-77
2022/05/07 01:09:53;;;;;;;;;;;17.40;73.40;;;;;;5090293;28;19920;-76
2022/05/07 01:12:21;;;;;;;;;;;17.50;73.50;;;;;;5103552;27;19963;-76
2022/05/07 01:15:07;;;;;;;;;;;17.50;73.50;;;;;;5090330;28;19963;-77
2022/05/07 01:17:36;;;;;;;;;;;17.50;73.40;;;;;;5095916;27;20022;-77
2022/05/07 01:20:11;;;;;;;;;;;17.50;73.40;;;;;;5092422;28;19920;-76
2022/05/07 01:22:47;;;;;;;;;;;17.40;73.20;;;;;;5088803;28;20225;-79
2022/05/07 01:25:20;;;;;;;;;;;17.40;73.40;;;;;;5094860;28;19919;-77
2022/05/07 01:27:55;;;;;;;;;;;18.50;74.60;;;;;;5087165;28;19931;-76
2022/05/07 01:30:21;;;;;;;;;;;17.40;73.30;;;;;;5105928;27;19919;-76
2022/05/07 01:32:53;;;;;;;;;;;17.40;73.40;;;;;;5118634;27;19919;-78
2022/05/07 01:35:23;;;;;;;;;;;17.40;73.30;;;;;;5121786;28;19927;-77
2022/05/07 01:38:09;;;;;;;;;;;17.40;73.40;;;;;;5112395;27;19934;-78
2022/05/07 01:40:36;;;;;;;;;;;17.40;73.30;;;;;;5090732;28;19999;-76
2022/05/07 01:43:05;;;;;;;;;;;18.40;74.40;;;;;;5119219;27;19927;-77
2022/05/07 01:45:50;;;;;;;;;;;17.40;73.20;;;;;;5119030;27;19919;-76
2022/05/07 01:48:19;;;;;;;;;;;17.40;73.20;;;;;;5116254;27;19926;-76
2022/05/07 01:51:00;;;;;;;;;;;17.40;73.30;;;;;;5099153;27;19938;-79
2022/05/07 01:53:28;;;;;;;;;;;17.40;73.30;;;;;;5116762;27;19919;-75
2022/05/07 01:55:58;;;;;;;;;;;17.40;73.30;;;;;;5113822;27;19959;-78
2022/05/07 01:58:26;;;;;;;;;;;17.40;73.30;;;;;;5104443;27;20289;-78
2022/05/07 02:00:59;;;;;;;;;;;18.90;74.90;;;;;;5093309;27;20305;-77
2022/05/07 02:03:27;;;;;;;;;;;18.50;74.40;;;;;;5117454;27;19954;-77
2022/05/07 02:05:53;;;;;;;;;;;17.40;73.30;;;;;;5097109;27;20729;-77
2022/05/07 02:08:20;;;;;;;;;;;17.40;73.10;;;;;;5120563;27;20022;-76
2022/05/07 02:11:01;;;;;;;;;;;17.40;73.10;;;;;;5109291;27;19926;-77
2022/05/07 02:13:28;;;;;;;;;;;17.40;73.20;;;;;;5120336;27;20426;-77
2022/05/07 02:16:06;;;;;;;;;;;17.40;73.20;;;;;;5118184;27;19983;-77
2022/05/07 02:18:34;;;;;;;;;;;17.40;73.10;;;;;;5114344;27;19927;-76
2022/05/07 02:21:19;;;;;;;;;;;17.40;73.10;;;;;;5112265;27;20599;-75
2022/05/07 02:24:05;;;;;;;;;;;17.40;73.10;;;;;;5116351;27;19935;-77
2022/05/07 02:26:35;;;;;;;;;;;17.40;73.10;;;;;;5090525;27;19924;-76
2022/05/07 02:29:21;;;;;;;;;;;17.40;73.10;;;;;;5109647;27;19935;-76
2022/05/07 02:32:05;;;;;;;;;;;17.40;73.10;;;;;;5105782;27;20360;-78
2022/05/07 02:34:33;;;;;;;;;;;17.40;73.00;;;;;;5108036;27;19919;-76
2022/05/07 02:37:11;;;;;;;;;;;18.20;73.90;;;;;;5117853;27;19967;-79
2022/05/07 02:39:50;;;;;;;;;;;17.40;73.00;;;;;;5109745;27;19980;-77
2022/05/07 02:45:20;;;;;;;;;;;17.40;73.00;;;;;;5113064;27;20325;-76
2022/05/07 02:47:51;;;;;;;;;;;16.50;72.10;;;;;;5092627;27;19996;-77
2022/05/07 02:50:18;;;;;;;;;;;17.30;72.90;;;;;;5098804;27;19923;-77
2022/05/07 02:52:45;;;;;;;;;;;17.40;73.10;;;;;;5096076;27;20015;-76
2022/05/07 02:55:13;;;;;;;;;;;17.40;73.20;;;;;;5097309;27;19927;-81
2022/05/07 02:57:41;;;;;;;;;;;17.30;73.00;;;;;;5115340;27;20259;-78
2022/05/07 03:00:15;;;;;;;;;;;17.30;73.20;;;;;;5093591;27;19919;-78
2022/05/07 03:02:47;;;;;;;;;;;17.40;73.30;;;;;;5117082;27;19930;-77
2022/05/07 03:05:19;;;;;;;;;;;17.30;73.00;;;;;;5115304;27;20072;-77
2022/05/07 03:07:49;;;;;;;;;;;17.40;73.20;;;;;;5112523;27;19961;-79
2022/05/07 03:10:20;;;;;;;;;;;17.30;73.10;;;;;;5106419;27;19927;-76
2022/05/07 03:12:58;;;;;;;;;;;17.40;73.20;;;;;;5111251;27;19923;-77
2022/05/07 03:15:27;;;;;;;;;;;16.50;72.30;;;;;;5097084;27;20358;-77
2022/05/07 03:17:53;;;;;;;;;;;17.30;73.10;;;;;;5118720;27;19919;-78
2022/05/07 03:20:26;;;;;;;;;;;17.30;73.00;;;;;;5105819;27;19927;-76
2022/05/07 03:22:56;;;;;;;;;;;17.30;73.10;;;;;;5109573;27;20381;-76
2022/05/07 03:25:22;;;;;;;;;;;17.40;73.20;;;;;;5107065;27;20705;-76
2022/05/07 03:28:02;;;;;;;;;;;18.30;74.10;;;;;;5122770;27;20374;-76
2022/05/07 03:30:28;;;;;;;;;;;18.30;74.20;;;;;;5111516;27;20393;-77
2022/05/07 03:32:56;;;;;;;;;;;17.30;73.00;;;;;;5107813;27;19980;-77
2022/05/07 03:35:28;;;;;;;;;;;17.30;73.00;;;;;;5098641;27;19942;-77
2022/05/07 03:37:55;;;;;;;;;;;18.40;74.20;;;;;;5119572;27;20382;-77
2022/05/07 03:40:21;;;;;;;;;;;17.30;73.10;;;;;;5116964;27;20337;-77
2022/05/07 03:43:08;;;;;;;;;;;17.30;73.10;;;;;;5119175;27;19946;-75
2022/05/07 03:45:36;;;;;;;;;;;17.30;73.00;;;;;;5115091;27;19920;-79
2022/05/07 03:48:02;;;;;;;;;;;17.20;72.90;;;;;;5108921;27;19920;-79
2022/05/07 03:50:29;;;;;;;;;;;17.30;73.00;;;;;;5120110;27;19920;-78
2022/05/07 03:55:47;;;;;;;;;;;18.10;73.80;;;;;;5111867;27;19984;-76
2022/05/07 03:58:22;;;;;;;;;;;17.30;72.80;;;;;;5109808;27;20003;-77
2022/05/07 04:01:01;;;;;;;;;;;17.30;72.90;;;;;;5116900;27;19934;-78
2022/05/07 04:03:29;;;;;;;;;;;17.30;72.60;;;;;;5107611;27;19933;-77
2022/05/07 04:06:14;;;;;;;;;;;18.60;74.10;;;;;;5102512;27;20374;-77
2022/05/07 04:08:53;;;;;;;;;;;18.20;73.50;;;;;;5118786;27;19926;-77
2022/05/07 04:11:21;;;;;;;;;;;17.30;72.70;;;;;;5114905;27;20008;-76
2022/05/07 04:13:52;;;;;;;;;;;18.50;74.00;;;;;;5092327;27;20406;-76
2022/05/07 04:16:20;;;;;;;;;;;17.30;72.70;;;;;;5115222;27;19928;-79
2022/05/07 04:18:47;;;;;;;;;;;17.30;72.60;;;;;;5089309;27;19924;-77
2022/05/07 04:21:14;;;;;;;;;;;17.40;72.70;;;;;;5107338;27;19926;-77
2022/05/07 04:23:44;;;;;;;;;;;17.30;72.50;;;;;;5106942;27;20353;-76
2022/05/07 04:26:11;;;;;;;;;;;18.40;73.70;;;;;;5119155;27;19919;-78
2022/05/07 04:28:52;;;;;;;;;;;17.30;72.70;;;;;;5092819;27;19926;-78
2022/05/07 04:31:20;;;;;;;;;;;17.30;72.60;;;;;;5111661;27;19935;-76
2022/05/07 04:33:51;;;;;;;;;;;17.20;72.40;;;;;;5108761;27;20018;-75
2022/05/07 04:36:23;;;;;;;;;;;17.30;72.60;;;;;;5107458;27;19927;-77
2022/05/07 04:38:50;;;;;;;;;;;17.30;72.80;;;;;;5103190;27;19926;-77
2022/05/07 04:41:27;;;;;;;;;;;18.20;73.80;;;;;;5115377;27;20378;-79
2022/05/07 04:43:54;;;;;;;;;;;17.20;72.80;;;;;;5108091;27;19926;-76
2022/05/07 04:46:25;;;;;;;;;;;17.20;72.80;;;;;;5108901;27;19919;-80
2022/05/07 04:48:52;;;;;;;;;;;17.20;72.90;;;;;;5113133;27;20783;-77
2022/05/07 04:51:19;;;;;;;;;;;17.20;72.90;;;;;;5104910;27;20039;-77
2022/05/07 04:53:45;;;;;;;;;;;17.30;73.00;;;;;;5108633;27;19984;-77
2022/05/07 04:56:13;;;;;;;;;;;17.30;73.00;;;;;;5103970;27;19938;-76
2022/05/07 04:58:52;;;;;;;;;;;17.30;73.00;;;;;;5110655;27;19930;-76
2022/05/07 05:01:23;;;;;;;;;;;17.20;72.90;;;;;;5108254;27;19926;-76
2022/05/07 05:03:59;;;;;;;;;;;17.30;73.10;;;;;;5110848;27;19927;-78
2022/05/07 05:06:27;;;;;;;;;;;17.30;73.10;;;;;;5107892;27;19919;-78
2022/05/07 05:08:53;;;;;;;;;;;17.30;73.20;;;;;;5106952;27;19919;-77
2022/05/07 05:11:27;;;;;;;;;;;17.70;73.50;;;;;;5116700;27;20695;-76
2022/05/07 05:13:53;;;;;;;;;;;17.30;73.10;;;;;;5107390;27;19943;-76
2022/05/07 05:16:29;;;;;;;;;;;17.30;73.10;;;;;;5115864;27;19919;-76
2022/05/07 05:18:59;;;;;;;;;;;17.30;73.20;;;;;;5081503;27;19942;-76
2022/05/07 05:21:27;;;;;;;;;;;17.30;73.10;;;;;;5106587;27;19934;-78
2022/05/07 05:24:12;;;;;;;;;;;17.30;73.80;;;;;;5108332;27;20318;-79
2022/05/07 05:26:39;;;;;;;;;;;17.30;73.10;;;;;;5111942;27;19920;-76
2022/05/07 05:29:06;;;;;;;;;;;18.80;74.70;;;;;;5092438;28;19919;-76
2022/05/07 05:31:34;;;;;;;;;;;17.30;73.00;;;;;;5126956;27;19920;-78
2022/05/07 05:34:01;;;;;;;;;;;17.30;73.00;;;;;;5103526;27;19926;-78
2022/05/07 05:36:28;;;;;;;;;;;17.30;73.00;;;;;;5111538;27;19972;-78
2022/05/07 05:39:13;;;;;;;;;;;17.30;72.90;;;;;;5106814;27;19927;-78
2022/05/07 05:41:44;;;;;;;;;;;17.30;72.90;;;;;;5095038;28;19973;-77
2022/05/07 05:44:23;;;;;;;;;;;17.30;72.80;;;;;;5111986;27;19923;-76
2022/05/07 05:46:51;;;;;;;;;;;17.30;72.70;;;;;;5113966;27;19947;-79
2022/05/07 05:49:19;;;;;;;;;;;17.30;72.80;;;;;;5113946;27;19993;-78
2022/05/07 05:51:46;;;;;;;;;;;17.30;72.60;;;;;;5118899;27;19923;-76
2022/05/07 05:54:22;;;;;;;;;;;17.30;72.60;;;;;;5109724;27;20541;-77
2022/05/07 05:56:48;;;;;;;;;;;17.30;72.60;;;;;;5107538;27;19987;-76
2022/05/07 05:59:15;;;;;;;;;;;17.30;72.50;;;;;;5114208;27;19919;-76
2022/05/07 06:01:53;;;;;;;;;;;17.30;72.50;;;;;;5096643;28;19923;-78
2022/05/07 06:04:20;;;;;;;;;;;17.30;72.50;;;;;;5106686;28;20382;-76
2022/05/07 06:06:55;;;;;;;;;;;17.10;72.20;;;;;;5088887;28;19919;-76
2022/05/07 06:09:23;;;;;;;;;;;17.30;72.40;;;;;;5115833;27;19935;-77
2022/05/07 06:11:59;;;;;;;;;;;17.30;72.30;;;;;;5102194;27;19927;-77
2022/05/07 06:14:27;;;;;;;;;;;17.30;72.30;;;;;;5100058;28;20282;-78
2022/05/07 06:16:55;;;;;;;;;;;17.30;72.30;;;;;;5093312;28;19930;-76
2022/05/07 06:19:22;;;;;;;;;;;17.30;72.30;;;;;;5109417;27;20672;-76
2022/05/07 06:21:49;;;;;;;;;;;17.20;72.10;;;;;;5118891;28;19926;-77
2022/05/07 06:29:52;;;;;;;;;;;17.30;72.20;;;;;;5106290;27;19955;-77
2022/05/07 06:32:21;;;;;;;;;;;17.30;73.00;;;;;;5110528;27;20756;-75
2022/05/07 06:34:49;;;;;;;;;;;18.50;73.60;;;;;;5106132;27;19927;-76
2022/05/07 06:37:20;;;;;;;;;;;17.30;72.30;;;;;;5117234;27;19919;-75
2022/05/07 06:39:50;;;;;;;;;;;17.80;72.80;;;;;;5127779;27;19920;-77
2022/05/07 06:42:17;;;;;;;;;;;17.20;72.10;;;;;;5110858;27;19986;-77
2022/05/07 06:44:43;;;;;;;;;;;17.30;72.20;;;;;;5116061;27;20325;-78
2022/05/07 06:47:28;;;;;;;;;;;16.80;71.60;;;;;;5107008;27;20002;-75
2022/05/07 06:50:01;;;;;;;;;;;17.30;72.20;;;;;;5113658;27;20014;-77
2022/05/07 06:52:28;;;;;;;;;;;17.30;72.10;;;;;;5107952;27;19919;-75
2022/05/07 06:54:58;;;;;;;;;;;17.30;72.20;;;;;;5109628;27;19927;-77
2022/05/07 06:57:25;;;;;;;;;;;17.30;72.30;;;;;;5100046;27;19935;-76
2022/05/07 06:59:52;;;;;;;;;;;17.30;72.30;;;;;;5108972;27;20404;-77
2022/05/07 07:02:19;;;;;;;;;;;17.40;72.40;;;;;;5112600;27;19919;-77
2022/05/07 07:04:57;;;;;;;;;;;17.30;72.20;;;;;;5116091;27;19966;-77
2022/05/07 07:07:25;;;;;;;;;;;17.40;72.40;;;;;;5122673;27;20006;-76
2022/05/07 07:09:52;;;;;;;;;;;17.40;72.40;;;;;;5124476;27;19919;-76
2022/05/07 07:12:28;;;;;;;;;;;17.40;72.40;;;;;;5120595;27;19919;-77
2022/05/07 07:14:55;;;;;;;;;;;17.50;72.70;;;;;;5133079;27;19919;-77
2022/05/07 07:17:27;;;;;;;;;;;18.40;73.50;;;;;;5108812;27;19923;-77
2022/05/07 07:19:54;;;;;;;;;;;17.40;72.40;;;;;;5104791;27;19926;-77
2022/05/07 07:22:22;;;;;;;;;;;17.40;72.30;;;;;;5122869;27;20023;-75
2022/05/07 07:25:02;;;;;;;;;;;17.40;72.30;;;;;;5104273;27;19919;-77
2022/05/07 07:27:29;;;;;;;;;;;17.40;72.30;;;;;;5118304;27;19919;-78
2022/05/07 07:29:56;;;;;;;;;;;17.40;72.30;;;;;;5122175;27;19919;-75
2022/05/07 07:32:23;;;;;;;;;;;17.40;72.30;;;;;;5122174;27;19926;-77
2022/05/07 07:34:52;;;;;;;;;;;17.40;72.30;;;;;;5121864;27;19919;-77
2022/05/07 07:37:20;;;;;;;;;;;18.80;73.80;;;;;;5121463;27;19919;-76
2022/05/07 07:39:52;;;;;;;;;;;17.40;72.20;;;;;;5115266;27;19989;-78
2022/05/07 07:42:23;;;;;;;;;;;19.20;74.30;;;;;;5111594;27;19923;-77
2022/05/07 07:47:59;;;;;;;;;;;18.70;73.80;;;;;;5105773;27;19927;-76
2022/05/07 07:50:29;;;;;;;;;;;17.50;72.40;;;;;;5109767;27;19926;-75
2022/05/07 07:53:06;;;;;;;;;;;18.80;73.70;;;;;;5105410;27;20345;-78
2022/05/07 07:55:36;;;;;;;;;;;17.40;72.30;;;;;;5104382;27;19919;-78
2022/05/07 07:58:04;;;;;;;;;;;17.50;72.60;;;;;;5122515;27;19926;-75
2022/05/07 08:00:32;;;;;;;;;;;17.50;72.50;;;;;;5120870;27;19923;-78
2022/05/07 08:02:59;;;;;;;;;;;18.30;73.40;;;;;;5112263;27;20581;-75
2022/05/07 08:05:27;;;;;;;;;;;17.50;72.40;;;;;;5116179;27;20966;-77
2022/05/07 08:13:27;;;;;;;;;;;17.50;72.50;;;;;;5101349;27;20259;-75
2022/05/07 08:15:54;;;;;;;;;;;17.50;72.70;;;;;;5119719;27;19923;-76
2022/05/07 08:18:21;;;;;;;;;;;17.50;72.70;;;;;;5085627;28;20380;-76
2022/05/07 08:20:54;;;;;;;;;;;17.50;72.70;;;;;;5110299;27;19919;-75
2022/05/07 08:23:27;;;;;;;;;;;17.50;72.80;;;;;;5092771;27;19920;-75
2022/05/07 08:25:55;;;;;;;;;;;17.50;72.70;;;;;;5119822;27;19919;-77
2022/05/07 08:28:24;;;;;;;;;;;17.60;72.80;;;;;;5111874;27;20446;-77
2022/05/07 08:30:50;;;;;;;;;;;16.70;72.00;;;;;;5119048;27;20564;-76
2022/05/07 08:33:27;;;;;;;;;;;17.60;72.90;;;;;;5119219;27;19924;-75
2022/05/07 08:35:55;;;;;;;;;;;17.60;73.00;;;;;;5122292;27;20516;-77
2022/05/07 08:38:22;;;;;;;;;;;18.90;74.20;;;;;;5089817;27;19919;-76
2022/05/07 08:41:18;;;;;;;;;;;17.60;73.00;;;;;;5113011;27;19938;-77
2022/05/07 08:43:45;;;;;;;;;;;17.60;72.80;;;;;;5109425;28;19924;-75
2022/05/07 08:46:21;;;;;;;;;;;17.60;73.00;;;;;;5087292;28;20041;-74
2022/05/07 08:48:51;;;;;;;;;;;17.60;72.90;;;;;;5084842;28;19946;-75
2022/05/07 08:51:27;;;;;;;;;;;17.10;72.40;;;;;;5090093;28;20407;-73
2022/05/07 08:53:54;;;;;;;;;;;17.70;73.10;;;;;;5073241;28;19924;-78
2022/05/07 08:56:24;;;;;;;;;;;17.70;73.10;;;;;;5095651;28;20021;-75
2022/05/07 08:58:51;;;;;;;;;;;17.70;73.10;;;;;;5091888;28;20066;-74
2022/05/07 09:01:22;;;;;;;;;;;17.70;73.10;;;;;;5090072;28;20263;-74
2022/05/07 09:04:10;;;;;;;;;;;19.30;74.80;;;;;;5091992;28;20085;-75
2022/05/07 09:06:38;;;;;;;;;;;17.70;73.80;;;;;;5073149;28;19956;-76
2022/05/07 09:09:10;;;;;;;;;;;17.70;73.30;;;;;;5089585;28;19956;-75
2022/05/07 09:11:44;;;;;;;;;;;19.00;74.40;;;;;;5082975;28;20015;-76
2022/05/07 09:14:18;;;;;;;;;;;18.90;74.40;;;;;;5088018;28;20007;-78
2022/05/07 09:16:49;;;;;;;;;;;17.40;72.60;;;;;;5082929;28;19924;-76
2022/05/07 09:19:20;;;;;;;;;;;17.70;73.70;;;;;;5099707;28;19971;-76
2022/05/07 09:22:05;;;;;;;;;;;17.70;72.90;;;;;;5094504;28;19927;-76
2022/05/07 09:24:55;;;;;;;;;;;17.80;73.00;;;;;;5090231;28;19932;-74
2022/05/07 09:27:24;;;;;;;;;;;17.80;73.00;;;;;;5093678;28;20371;-78
2022/05/07 09:29:58;;;;;;;;;;;17.80;72.90;;;;;;5093748;28;19978;-78
2022/05/07 09:32:34;;;;;;;;;;;18.90;74.10;;;;;;5106183;27;19969;-75
2022/05/07 09:38:01;;;;;;;;;;;18.10;73.30;;;;;;5089007;28;20701;-77
2022/05/07 09:40:28;;;;;;;;;;;17.80;72.90;;;;;;5088827;28;19967;-76
2022/05/07 09:43:00;;;;;;;;;;;17.90;73.00;;;;;;5086708;28;19924;-74
2022/05/07 09:45:30;;;;;;;;;;;19.40;74.40;;;;;;5096603;28;19928;-77
2022/05/07 09:48:17;;;;;;;;;;;17.80;72.60;;;;;;5094521;28;19931;-76
2022/05/07 09:50:46;;;;;;;;;;;19.10;74.30;;;;;;5091311;28;19924;-74
2022/05/07 09:59:22;;;;;;;;;;;17.90;73.00;;;;;;5079457;28;20367;-77
2022/05/07 10:02:15;;;;;;;;;;;17.90;73.20;;;;;;5074081;28;19931;-75
2022/05/07 10:04:59;;;;;;;;;;;17.90;73.20;;;;;;5092307;28;19923;-77
2022/05/07 10:07:32;;;;;;;;;;;17.90;73.20;;;;;;5075749;28;20283;-75
2022/05/07 10:10:12;;;;;;;;;;;17.90;73.30;;;;;;5057202;28;19932;-75
2022/05/07 10:12:43;;;;;;;;;;;17.90;73.30;;;;;;5062807;28;19924;-78
2022/05/07 10:15:23;;;;;;;;;;;18.20;73.60;;;;;;5076716;28;22067;-77
2022/05/07 10:18:00;;;;;;;;;;;18.00;73.60;;;;;;5057478;28;19924;-76
2022/05/07 10:20:33;;;;;;;;;;;17.90;74.10;;;;;;5077381;28;20485;-75
2022/05/07 10:23:02;;;;;;;;;;;18.00;74.30;;;;;;5058981;28;20374;-77
2022/05/07 10:25:55;;;;;;;;;;;18.00;74.00;;;;;;5084337;28;20382;-80
2022/05/07 10:28:22;;;;;;;;;;;18.00;74.40;;;;;;5079433;28;19925;-76
2022/05/07 10:30:54;;;;;;;;;;;18.00;75.40;;;;;;5078513;28;19967;-74
2022/05/07 10:33:27;;;;;;;;;;;18.00;75.70;;;;;;5086266;28;19928;-77
2022/05/07 10:35:58;;;;;;;;;;;18.10;75.50;;;;;;5080631;28;19932;-77
2022/05/07 10:38:31;;;;;;;;;;;18.00;75.50;;;;;;5083428;28;19950;-76
2022/05/07 10:41:18;;;;;;;;;;;18.00;76.10;;;;;;5068492;28;19924;-75
2022/05/07 10:44:06;;;;;;;;;;;18.00;76.10;;;;;;5084349;28;19984;-76
2022/05/07 10:46:43;;;;;;;;;;;18.00;76.40;;;;;;5072648;28;19924;-74
2022/05/07 10:49:20;;;;;;;;;;;18.00;77.00;;;;;;5075086;28;19931;-75
2022/05/07 10:52:06;;;;;;;;;;;18.00;77.20;;;;;;5082442;28;20077;-75
2022/05/07 10:54:33;;;;;;;;;;;18.00;77.50;;;;;;5080478;28;19925;-76
2022/05/07 10:57:18;;;;;;;;;;;18.00;77.40;;;;;;5071633;28;19949;-78
2022/05/07 10:59:45;;;;;;;;;;;18.00;78.40;;;;;;5083701;28;20058;-76
2022/05/07 11:02:20;;;;;;;;;;;19.10;78.90;;;;;;5082314;28;19938;-78
2022/05/07 11:04:55;;;;;;;;;;;18.00;77.90;;;;;;5096977;28;19931;-77
2022/05/07 11:07:23;;;;;;;;;;;18.60;79.00;;;;;;5091479;28;19928;-76
2022/05/07 11:09:51;;;;;;;;;;;18.00;78.30;;;;;;5083015;28;19931;-76
2022/05/07 11:12:27;;;;;;;;;;;18.00;78.80;;;;;;5059907;28;19928;-77
2022/05/07 11:14:54;;;;;;;;;;;18.00;78.80;;;;;;5071640;28;20027;-74
2022/05/07 11:17:33;;;;;;;;;;;18.80;79.80;;;;;;5083063;28;19970;-75
2022/05/07 11:20:03;;;;;;;;;;;18.00;79.40;;;;;;5080915;28;19935;-74
2022/05/07 11:22:39;;;;;;;;;;;18.00;79.50;;;;;;5078456;28;19927;-74
2022/05/07 11:25:07;;;;;;;;;;;18.10;79.60;;;;;;5093837;28;19931;-76
2022/05/07 11:27:34;;;;;;;;;;;18.10;79.60;;;;;;5078003;28;20020;-75
2022/05/07 11:30:01;;;;;;;;;;;18.10;80.00;;;;;;5074121;28;19928;-76
2022/05/07 11:32:39;;;;;;;;;;;18.10;80.70;;;;;;5050054;28;20134;-76
2022/05/07 11:35:09;;;;;;;;;;;18.10;80.30;;;;;;5068089;28;19928;-77
2022/05/07 11:37:41;;;;;;;;;;;18.10;80.30;;;;;;5060263;28;19934;-76
2022/05/07 11:40:08;;;;;;;;;;;18.10;81.00;;;;;;5068365;28;19924;-75
2022/05/07 11:42:49;;;;;;;;;;;18.10;79.80;;;;;;5078875;28;19932;-77
2022/05/07 11:45:29;;;;;;;;;;;18.20;80.00;;;;;;5080027;28;20556;-76
2022/05/07 11:48:00;;;;;;;;;;;18.00;80.10;;;;;;5086869;28;19924;-74
2022/05/07 11:50:28;;;;;;;;;;;18.90;81.40;;;;;;5073727;28;19932;-77
2022/05/07 11:53:18;;;;;;;;;;;18.10;80.90;;;;;;5075073;28;19924;-77
2022/05/07 11:56:10;;;;;;;;;;;18.10;80.60;;;;;;5075722;28;19928;-77
2022/05/07 11:58:41;;;;;;;;;;;18.10;80.90;;;;;;5079511;28;19931;-77
2022/05/07 12:01:22;;;;;;;;;;;18.10;81.40;;;;;;5073790;28;19935;-75
2022/05/07 12:04:09;;;;;;;;;;;18.20;81.30;;;;;;5068625;28;20060;-76
2022/05/07 12:06:36;;;;;;;;;;;19.10;82.50;;;;;;5077184;28;19924;-76
2022/05/07 12:09:22;;;;;;;;;;;18.20;82.10;;;;;;5074103;28;20526;-75
2022/05/07 12:11:50;;;;;;;;;;;18.20;81.80;;;;;;5080504;28;19928;-76
2022/05/07 12:14:17;;;;;;;;;;;18.20;82.20;;;;;;5077884;28;20388;-74
2022/05/07 12:19:29;;;;;;;;;;;18.20;82.40;;;;;;5077531;28;19932;-76
2022/05/07 12:30:36;;;;;;;;;;;18.30;83.00;;;;;;5071295;28;20405;-77
2022/05/07 12:33:15;;;;;;;;;;;19.00;83.80;;;;;;5079969;28;19947;-76
2022/05/07 12:35:55;;;;;;;;;;;18.30;83.00;;;;;;5088124;28;19928;-73
2022/05/07 12:38:22;;;;;;;;;;;18.70;83.20;;;;;;5076023;28;19987;-74
2022/05/07 12:40:52;;;;;;;;;;;18.40;80.50;;;;;;5089445;28;19930;-74
2022/05/07 12:43:21;;;;;;;;;;;18.50;77.10;;;;;;5082099;28;20449;-75
2022/05/07 12:45:52;;;;;;;;;;;18.50;75.90;;;;;;5079327;28;19976;-76
2022/05/07 12:48:19;;;;;;;;;;;18.50;75.00;;;;;;5086836;28;19931;-79
2022/05/07 12:50:46;;;;;;;;;;;19.80;74.70;;;;;;5072775;28;19924;-75
2022/05/07 12:53:27;;;;;;;;;;;18.50;71.40;;;;;;5075591;28;19969;-74
2022/05/07 12:56:01;;;;;;;;;;;18.60;70.70;;;;;;5077408;28;19924;-75
2022/05/07 12:58:28;;;;;;;;;;;18.60;70.30;;;;;;5078085;28;19930;-75
2022/05/07 13:01:05;;;;;;;;;;;18.50;71.50;;;;;;5083892;28;20038;-75
2022/05/07 13:03:43;;;;;;;;;;;18.50;72.20;;;;;;5082183;28;19925;-76
2022/05/07 13:06:11;;;;;;;;;;;18.40;72.50;;;;;;5081927;28;19924;-77
2022/05/07 13:08:39;;;;;;;;;;;18.50;73.30;;;;;;5092541;28;19931;-73
2022/05/07 13:11:06;;;;;;;;;;;18.40;73.50;;;;;;5085642;28;19960;-74
2022/05/07 13:13:33;;;;;;;;;;;18.40;73.80;;;;;;5078372;28;19924;-73
2022/05/07 13:16:05;;;;;;;;;;;18.70;74.40;;;;;;5058798;28;20016;-76
2022/05/07 13:18:50;;;;;;;;;;;18.40;74.50;;;;;;5079120;28;19931;-74
2022/05/07 13:21:17;;;;;;;;;;;19.20;72.90;;;;;;5057984;28;19928;-75
2022/05/07 13:23:45;;;;;;;;;;;18.50;72.40;;;;;;5054794;28;19924;-77
2022/05/07 13:26:12;;;;;;;;;;;18.50;72.70;;;;;;5063277;28;20016;-78
2022/05/07 13:28:39;;;;;;;;;;;18.50;73.20;;;;;;5058243;28;19927;-78
2022/05/07 13:31:07;;;;;;;;;;;18.50;73.50;;;;;;5078566;28;20023;-76
2022/05/07 13:33:34;;;;;;;;;;;18.50;73.70;;;;;;5082695;28;19970;-74
2022/05/07 13:36:14;;;;;;;;;;;18.50;74.00;;;;;;5081374;28;20010;-75
2022/05/07 13:38:54;;;;;;;;;;;18.40;74.20;;;;;;5077367;28;19928;-76
2022/05/07 13:41:28;;;;;;;;;;;18.40;74.30;;;;;;5088048;28;19924;-75
2022/05/07 13:43:55;;;;;;;;;;;18.40;74.40;;;;;;5081368;28;19925;-75
2022/05/07 13:46:30;;;;;;;;;;;18.40;74.70;;;;;;5083948;28;19924;-76
2022/05/07 13:49:00;;;;;;;;;;;18.40;74.70;;;;;;5073846;28;19924;-74
2022/05/07 13:51:29;;;;;;;;;;;18.40;74.70;;;;;;5075739;28;20020;-75
2022/05/07 13:53:59;;;;;;;;;;;18.50;74.80;;;;;;5065069;28;19924;-77
2022/05/07 13:56:27;;;;;;;;;;;18.50;75.00;;;;;;5081039;28;19924;-76
2022/05/07 13:58:56;;;;;;;;;;;19.40;75.50;;;;;;5087612;28;19924;-74
2022/05/07 14:01:24;;;;;;;;;;;18.70;73.90;;;;;;5055629;28;19935;-74
2022/05/07 14:03:51;;;;;;;;;;;18.60;72.80;;;;;;5071787;28;19924;-75
2022/05/07 14:06:24;;;;;;;;;;;19.00;73.90;;;;;;5070695;28;19930;-75
2022/05/07 14:08:52;;;;;;;;;;;18.50;73.50;;;;;;5082765;28;19928;-76
2022/05/07 14:11:24;;;;;;;;;;;18.50;73.60;;;;;;5059262;28;19924;-76
2022/05/07 14:13:51;;;;;;;;;;;18.50;73.80;;;;;;5077665;28;19923;-76
2022/05/07 14:16:27;;;;;;;;;;;18.50;73.80;;;;;;5079798;28;19931;-75
2022/05/07 14:18:54;;;;;;;;;;;18.50;73.90;;;;;;5076605;28;20035;-77
2022/05/07 14:21:21;;;;;;;;;;;19.30;74.90;;;;;;5077256;28;20002;-76
2022/05/07 14:23:51;;;;;;;;;;;19.40;75.00;;;;;;5075413;28;19932;-77
2022/05/07 14:26:28;;;;;;;;;;;18.50;74.20;;;;;;5083190;28;19936;-75
2022/05/07 14:28:55;;;;;;;;;;;18.50;74.20;;;;;;5075102;28;19939;-76
2022/05/07 14:31:22;;;;;;;;;;;18.50;74.20;;;;;;5077206;28;20314;-75
2022/05/07 14:33:49;;;;;;;;;;;18.50;74.20;;;;;;5078437;28;19930;-77
2022/05/07 14:36:25;;;;;;;;;;;18.50;74.30;;;;;;5062168;28;19939;-75
2022/05/07 14:38:52;;;;;;;;;;;18.50;74.40;;;;;;5079111;28;19924;-74
2022/05/07 14:41:23;;;;;;;;;;;18.40;74.20;;;;;;5068135;28;20019;-74
2022/05/07 14:44:02;;;;;;;;;;;18.40;74.30;;;;;;5077593;28;19931;-75
2022/05/07 14:46:28;;;;;;;;;;;18.50;74.40;;;;;;5057516;28;20006;-77
2022/05/07 14:48:55;;;;;;;;;;;18.40;74.40;;;;;;5076721;28;19962;-74
2022/05/07 14:51:27;;;;;;;;;;;18.50;74.70;;;;;;5072481;28;20406;-74
2022/05/07 14:53:56;;;;;;;;;;;18.40;74.60;;;;;;5093620;28;19928;-75
2022/05/07 14:56:23;;;;;;;;;;;17.40;73.50;;;;;;5078130;28;20378;-74
2022/05/07 14:58:51;;;;;;;;;;;18.40;74.60;;;;;;5077753;28;19955;-75
2022/05/07 15:01:21;;;;;;;;;;;19.40;75.70;;;;;;5073058;28;20055;-78
2022/05/07 15:03:48;;;;;;;;;;;18.40;75.20;;;;;;5085459;28;20383;-76
2022/05/07 15:06:22;;;;;;;;;;;18.40;75.30;;;;;;5081639;28;19974;-75
2022/05/07 15:11:52;;;;;;;;;;;18.40;75.50;;;;;;5079628;28;19931;-77
2022/05/07 15:14:19;;;;;;;;;;;18.40;75.50;;;;;;5083365;28;19927;-76
2022/05/07 15:16:47;;;;;;;;;;;18.40;75.90;;;;;;5045417;28;19924;-75
2022/05/07 15:19:22;;;;;;;;;;;18.40;75.80;;;;;;5060946;28;19924;-77
2022/05/07 15:21:50;;;;;;;;;;;18.40;76.00;;;;;;5097731;28;19959;-76
2022/05/07 15:24:18;;;;;;;;;;;18.40;76.20;;;;;;5095604;28;20019;-76
2022/05/07 15:26:56;;;;;;;;;;;18.40;76.40;;;;;;5073810;28;19935;-77